createdAt,value
2016-09-30T12:19:18.636Z,18.89
2016-09-30T12:20:19.410Z,18.78
2016-09-30T12:21:20.054Z,18.84
2016-09-30T12:22:20.784Z,18.8
2016-09-30T12:23:21.699Z,18.99
2016-09-30T12:24:22.397Z,18.9
2016-09-30T12:25:23.095Z,19
2016-09-30T12:26:23.829Z,19
2016-09-30T12:27:24.554Z,19.02
2016-09-30T12:28:25.297Z,19.08
2016-09-30T12:29:26.015Z,19.14
2016-09-30T12:30:26.696Z,18.98
2016-09-30T12:31:27.383Z,18.93
2016-09-30T12:32:28.056Z,18.93
2016-09-30T12:33:28.818Z,18.84
2016-09-30T12:34:29.490Z,18.68
2016-09-30T12:35:30.179Z,18.68
2016-09-30T12:36:30.876Z,18.68
2016-09-30T12:37:31.561Z,18.68
2016-09-30T12:38:32.295Z,18.7
2016-09-30T12:39:32.983Z,18.71
2016-09-30T12:40:33.696Z,18.62
2016-09-30T12:41:34.422Z,18.59
2016-09-30T12:42:35.078Z,18.53
2016-09-30T12:43:35.763Z,18.5
2016-09-30T12:44:36.496Z,18.5
2016-09-30T12:45:37.218Z,18.52
2016-09-30T12:46:37.929Z,18.47
2016-09-30T12:47:38.653Z,18.52
2016-09-30T12:48:39.336Z,18.47
2016-09-30T12:49:40.033Z,18.35
2016-09-30T12:50:40.770Z,18.37
2016-09-30T12:51:41.446Z,18.4
2016-09-30T12:52:42.147Z,18.4
2016-09-30T12:53:42.856Z,18.38
2016-09-30T12:54:43.554Z,18.33
2016-09-30T12:55:44.262Z,18.31
2016-09-30T12:56:44.936Z,18.31
2016-09-30T12:57:45.627Z,18.33
2016-09-30T12:58:46.326Z,18.33
2016-09-30T12:59:47.008Z,18.28
2016-09-30T13:00:47.683Z,18.31
2016-09-30T13:01:48.374Z,18.38
2016-09-30T13:02:49.083Z,18.33
2016-09-30T13:03:49.761Z,18.33
2016-09-30T13:04:50.463Z,18.34
2016-09-30T13:05:51.165Z,18.43
2016-09-30T13:06:51.864Z,18.41
2016-09-30T13:07:52.554Z,18.49
2016-09-30T13:08:53.230Z,18.47
2016-09-30T13:09:53.910Z,18.4
2016-09-30T13:10:54.647Z,18.35
2016-09-30T13:11:55.351Z,18.31
2016-09-30T13:12:56.038Z,18.31
2016-09-30T13:13:56.734Z,18.19
2016-09-30T13:14:57.417Z,18.2
2016-09-30T13:15:58.086Z,18.25
2016-09-30T13:16:58.760Z,18.2
2016-09-30T13:17:59.454Z,18.16
2016-09-30T13:19:00.154Z,18.16
2016-09-30T13:20:00.838Z,18.04
2016-09-30T13:21:01.522Z,18.18
2016-09-30T13:22:02.230Z,18.13
2016-09-30T13:23:02.921Z,18.19
2016-09-30T13:24:03.595Z,18.15
2016-09-30T13:25:04.293Z,18.07
2016-09-30T13:26:04.995Z,18.07
2016-09-30T13:27:05.686Z,18.16
2016-09-30T13:28:06.378Z,18.03
2016-09-30T13:29:07.075Z,18.01
2016-09-30T13:30:07.757Z,18.03
2016-09-30T13:31:10.027Z,17.97
2016-09-30T13:32:11.268Z,18.03
2016-09-30T13:33:12.491Z,18
2016-09-30T13:34:12.295Z,18.05
2016-09-30T13:35:12.988Z,18.04
2016-09-30T13:36:13.745Z,18.05
2016-09-30T13:37:14.442Z,18.03
2016-09-30T13:38:15.161Z,18.01
2016-09-30T13:39:15.863Z,18.08
2016-09-30T13:40:16.538Z,18.05
2016-09-30T13:41:17.215Z,18.04
2016-09-30T13:42:17.897Z,18.01
2016-09-30T13:43:18.613Z,17.98
2016-09-30T13:44:19.324Z,18.04
2016-09-30T13:45:20.171Z,18
2016-09-30T13:46:20.829Z,18.1
2016-09-30T13:47:21.512Z,18.07
2016-09-30T13:48:22.212Z,18.05
2016-09-30T13:49:22.898Z,18.15
2016-09-30T13:50:23.578Z,18.04
2016-09-30T13:51:24.267Z,18.04
2016-09-30T13:52:24.958Z,18.01
2016-09-30T13:53:25.660Z,18.08
2016-09-30T13:54:26.365Z,17.97
2016-09-30T13:55:27.053Z,18.05
2016-09-30T13:56:27.745Z,18.04
2016-09-30T13:57:28.439Z,18.03
2016-09-30T13:58:29.113Z,17.98
2016-09-30T13:59:29.798Z,18.03
2016-09-30T14:00:30.519Z,18.08
2016-09-30T14:01:31.207Z,17.97
2016-09-30T14:02:31.937Z,18.08
2016-09-30T14:03:32.628Z,18.07
2016-09-30T14:04:33.311Z,17.98
2016-09-30T14:05:34.008Z,17.98
2016-09-30T14:06:34.699Z,17.95
2016-09-30T14:07:35.404Z,17.9
2016-09-30T14:08:36.100Z,17.87
2016-09-30T14:09:36.812Z,17.83
2016-09-30T14:10:37.541Z,17.85
2016-09-30T14:11:38.254Z,17.79
2016-09-30T14:12:38.938Z,17.87
2016-09-30T14:13:39.628Z,17.86
2016-09-30T14:14:40.311Z,17.83
2016-09-30T14:15:40.992Z,17.83
2016-09-30T14:16:41.669Z,17.86
2016-09-30T14:17:42.372Z,17.9
2016-09-30T14:18:43.069Z,17.9
2016-09-30T14:19:43.759Z,17.87
2016-09-30T14:20:44.466Z,17.95
2016-09-30T14:21:45.139Z,17.87
2016-09-30T14:22:45.837Z,17.85
2016-09-30T14:23:46.505Z,17.89
2016-09-30T14:24:47.197Z,18.03
2016-09-30T14:25:47.880Z,18
2016-09-30T14:26:48.576Z,18
2016-09-30T14:27:49.254Z,17.97
2016-09-30T14:28:49.929Z,17.95
2016-09-30T14:29:50.669Z,18
2016-09-30T14:30:51.442Z,18.04
2016-09-30T14:31:52.100Z,17.98
2016-09-30T14:32:52.807Z,18.08
2016-09-30T14:33:53.489Z,18.13
2016-09-30T14:34:54.205Z,18.1
2016-09-30T14:35:54.921Z,18
2016-09-30T14:36:55.630Z,18.07
2016-09-30T14:37:56.343Z,18.1
2016-09-30T14:38:57.044Z,17.97
2016-09-30T14:39:57.838Z,18.04
2016-09-30T14:40:58.546Z,17.97
2016-09-30T14:42:00.418Z,18.05
2016-09-30T14:43:01.757Z,18.05
2016-09-30T14:44:02.885Z,18.05
2016-09-30T14:45:03.584Z,18.07
2016-09-30T14:46:04.259Z,18.05
2016-09-30T14:47:04.942Z,18.1
2016-09-30T14:48:05.780Z,18.04
2016-09-30T14:49:06.980Z,17.94
2016-09-30T14:50:07.659Z,18
2016-09-30T14:51:08.337Z,17.95
2016-09-30T14:52:09.015Z,17.95
2016-09-30T14:53:09.704Z,18.01
2016-09-30T14:54:10.399Z,18.03
2016-09-30T14:55:11.120Z,17.92
2016-09-30T14:56:11.920Z,17.9
2016-09-30T14:57:12.612Z,17.83
2016-09-30T14:58:13.316Z,17.83
2016-09-30T14:59:13.995Z,17.85
2016-09-30T15:00:14.680Z,17.9
2016-09-30T15:01:15.388Z,17.87
2016-09-30T15:02:16.066Z,17.83
2016-09-30T15:03:16.769Z,17.6
2016-09-30T15:04:17.461Z,17.38
2016-09-30T15:05:18.164Z,17.3
2016-09-30T15:06:18.850Z,17.12
2016-09-30T15:07:19.583Z,17.09
2016-09-30T15:08:20.270Z,16.99
2016-09-30T15:09:20.943Z,16.96
2016-09-30T15:10:21.625Z,16.87
2016-09-30T15:11:22.341Z,16.87
2016-09-30T15:12:23.027Z,16.75
2016-09-30T15:13:23.704Z,16.65
2016-09-30T15:14:24.395Z,16.49
2016-09-30T15:15:25.161Z,16.56
2016-09-30T15:16:25.852Z,16.47
2016-09-30T15:17:26.534Z,16.47
2016-09-30T15:18:27.239Z,16.47
2016-09-30T15:19:27.923Z,16.41
2016-09-30T15:20:28.603Z,16.35
2016-09-30T15:21:29.317Z,16.36
2016-09-30T15:22:30.002Z,16.17
2016-09-30T15:23:30.681Z,16.2
2016-09-30T15:24:31.402Z,16.1
2016-09-30T15:25:32.106Z,16.2
2016-09-30T15:26:32.795Z,16.13
2016-09-30T15:27:33.570Z,16.2
2016-09-30T15:28:34.267Z,16.1
2016-09-30T15:29:34.958Z,16.1
2016-09-30T15:30:35.635Z,16.13
2016-09-30T15:31:36.323Z,16.09
2016-09-30T15:32:37.023Z,16.08
2016-09-30T15:33:37.741Z,16.12
2016-09-30T15:34:38.423Z,16.02
2016-09-30T15:35:39.097Z,16.05
2016-09-30T15:36:39.823Z,16.09
2016-09-30T15:37:40.516Z,16.12
2016-09-30T15:38:41.205Z,16.09
2016-09-30T15:39:41.893Z,16.08
2016-09-30T15:40:43.938Z,16.08
2016-09-30T15:41:44.137Z,16.09
2016-09-30T15:42:44.828Z,16.02
2016-09-30T15:43:45.520Z,16.12
2016-09-30T15:44:46.215Z,16.05
2016-09-30T15:45:46.923Z,16.1
2016-09-30T15:46:47.603Z,16
2016-09-30T15:47:48.320Z,15.98
2016-09-30T15:48:49.001Z,16.04
2016-09-30T15:49:49.689Z,16.12
2016-09-30T15:50:50.385Z,16.13
2016-09-30T15:51:51.063Z,16.1
2016-09-30T15:52:51.793Z,16.1
2016-09-30T15:53:52.508Z,16.01
2016-09-30T15:54:53.191Z,16.09
2016-09-30T15:55:53.869Z,16.04
2016-09-30T15:56:55.988Z,15.97
2016-09-30T15:57:55.747Z,15.91
2016-09-30T15:58:56.432Z,16.04
2016-09-30T15:59:57.133Z,15.95
2016-09-30T16:00:58.940Z,15.94
2016-09-30T16:02:00.470Z,15.94
2016-09-30T16:03:00.872Z,15.95
2016-09-30T16:04:01.591Z,15.98
2016-09-30T16:05:02.292Z,16.02
2016-09-30T16:06:03.038Z,15.98
2016-09-30T16:07:03.867Z,16.09
2016-09-30T16:08:05.034Z,16.05
2016-09-30T16:09:06.979Z,16.05
2016-09-30T16:10:09.031Z,16.09
2016-09-30T16:11:09.932Z,16.01
2016-09-30T16:12:12.718Z,15.97
2016-09-30T16:13:13.407Z,15.97
2016-09-30T16:14:14.107Z,16.02
2016-09-30T16:15:14.794Z,16.05
2016-09-30T16:16:15.488Z,16.12
2016-09-30T16:17:16.183Z,16.12
2016-09-30T16:18:16.864Z,16.09
2016-09-30T16:19:17.569Z,16.02
2016-09-30T16:20:18.261Z,16.05
2016-09-30T16:21:18.950Z,16.1
2016-09-30T16:22:19.645Z,16.04
2016-09-30T16:23:20.340Z,15.95
2016-09-30T16:24:21.034Z,15.91
2016-09-30T16:25:21.724Z,16.01
2016-09-30T16:26:22.438Z,15.97
2016-09-30T16:27:23.131Z,15.94
2016-09-30T16:28:23.867Z,15.86
2016-09-30T16:29:24.574Z,15.84
2016-09-30T16:30:25.262Z,15.84
2016-09-30T16:31:25.978Z,15.83
2016-09-30T16:32:26.682Z,15.9
2016-09-30T16:33:27.368Z,15.88
2016-09-30T16:34:28.072Z,15.73
2016-09-30T16:35:28.766Z,15.79
2016-09-30T16:36:29.473Z,15.7
2016-09-30T16:37:30.188Z,15.77
2016-09-30T16:38:30.976Z,15.75
2016-09-30T16:39:31.755Z,15.73
2016-09-30T16:40:32.397Z,15.77
2016-09-30T16:41:33.078Z,15.79
2016-09-30T16:42:33.823Z,15.72
2016-09-30T16:43:34.498Z,15.75
2016-09-30T16:44:35.192Z,15.72
2016-09-30T16:45:35.898Z,15.72
2016-09-30T16:46:36.593Z,15.67
2016-09-30T16:47:37.287Z,15.67
2016-09-30T16:48:38.002Z,15.61
2016-09-30T16:49:38.692Z,15.65
2016-09-30T16:50:39.414Z,15.59
2016-09-30T16:51:40.085Z,15.62
2016-09-30T16:52:40.780Z,15.65
2016-09-30T16:53:41.473Z,15.64
2016-09-30T16:54:42.171Z,15.61
2016-09-30T16:55:42.848Z,15.62
2016-09-30T16:56:43.551Z,15.58
2016-09-30T16:57:44.237Z,15.62
2016-09-30T16:58:44.921Z,15.59
2016-09-30T16:59:45.601Z,15.58
2016-09-30T17:00:46.310Z,15.61
2016-09-30T17:01:47.018Z,15.67
2016-09-30T17:02:47.726Z,15.54
2016-09-30T17:03:48.481Z,15.46
2016-09-30T17:04:49.158Z,15.57
2016-09-30T17:05:49.872Z,15.54
2016-09-30T17:06:50.574Z,15.44
2016-09-30T17:07:51.267Z,15.43
2016-09-30T17:08:51.959Z,15.55
2016-09-30T17:09:52.640Z,15.51
2016-09-30T17:10:53.314Z,15.51
2016-09-30T17:11:54.004Z,15.46
2016-09-30T17:12:55.101Z,15.61
2016-09-30T17:13:56.437Z,15.58
2016-09-30T17:14:57.253Z,15.58
2016-09-30T17:15:57.958Z,15.54
2016-09-30T17:16:58.677Z,15.54
2016-09-30T17:17:59.638Z,15.54
2016-09-30T17:19:00.339Z,15.52
2016-09-30T17:20:01.465Z,15.47
2016-09-30T17:21:02.173Z,15.55
2016-09-30T17:22:02.862Z,15.49
2016-09-30T17:23:03.613Z,15.44
2016-09-30T17:24:04.296Z,15.55
2016-09-30T17:25:04.990Z,15.46
2016-09-30T17:26:05.676Z,15.44
2016-09-30T17:27:06.352Z,15.44
2016-09-30T17:28:07.034Z,15.37
2016-09-30T17:29:07.716Z,15.37
2016-09-30T17:30:08.426Z,15.36
2016-09-30T17:31:09.101Z,15.35
2016-09-30T17:32:09.787Z,15.39
2016-09-30T17:33:10.489Z,15.31
2016-09-30T17:34:11.231Z,15.36
2016-09-30T17:35:11.919Z,15.31
2016-09-30T17:36:12.615Z,15.4
2016-09-30T17:37:13.318Z,15.33
2016-09-30T17:38:14.019Z,15.27
2016-09-30T17:39:14.702Z,15.24
2016-09-30T17:40:15.441Z,15.22
2016-09-30T17:41:16.130Z,15.28
2016-09-30T17:42:16.854Z,15.22
2016-09-30T17:43:17.524Z,15.28
2016-09-30T17:44:18.203Z,15.17
2016-09-30T17:45:18.883Z,15.17
2016-09-30T17:46:19.581Z,15.28
2016-09-30T17:47:20.260Z,15.21
2016-09-30T17:48:20.946Z,15.14
2016-09-30T17:49:21.632Z,15.15
2016-09-30T17:50:22.446Z,15.22
2016-09-30T17:51:23.142Z,15.19
2016-09-30T17:52:23.829Z,15.18
2016-09-30T17:53:24.572Z,15.15
2016-09-30T17:54:25.246Z,15.18
2016-09-30T17:55:25.918Z,15.17
2016-09-30T17:56:26.626Z,15.1
2016-09-30T17:57:27.310Z,15.1
2016-09-30T17:58:28.018Z,15.06
2016-09-30T17:59:28.706Z,15.1
2016-09-30T18:00:29.406Z,15.11
2016-09-30T18:01:30.107Z,15.04
2016-09-30T18:02:30.828Z,15.03
2016-09-30T18:03:31.548Z,15.06
2016-09-30T18:04:32.238Z,15.1
2016-09-30T18:05:32.954Z,15.07
2016-09-30T18:06:33.761Z,15
2016-09-30T18:07:34.459Z,15
2016-09-30T18:08:35.163Z,15
2016-09-30T18:09:35.858Z,15.04
2016-09-30T18:10:36.556Z,15.07
2016-09-30T18:11:37.234Z,15.02
2016-09-30T18:12:37.906Z,14.91
2016-09-30T18:13:38.585Z,15.04
2016-09-30T18:14:39.450Z,15.04
2016-09-30T18:15:40.149Z,15.06
2016-09-30T18:16:40.851Z,15.06
2016-09-30T18:17:41.543Z,14.92
2016-09-30T18:18:42.255Z,15.04
2016-09-30T18:19:43.097Z,14.96
2016-09-30T18:20:43.791Z,14.97
2016-09-30T18:21:44.469Z,15
2016-09-30T18:22:45.161Z,15.02
2016-09-30T18:23:45.847Z,15
2016-09-30T18:24:46.536Z,15.04
2016-09-30T18:25:47.226Z,14.92
2016-09-30T18:26:47.935Z,14.91
2016-09-30T18:27:48.619Z,14.96
2016-09-30T18:28:49.316Z,15.04
2016-09-30T18:29:49.999Z,15.02
2016-09-30T18:30:50.693Z,15.04
2016-09-30T18:31:51.411Z,14.96
2016-09-30T18:32:52.131Z,15.07
2016-09-30T18:33:52.983Z,15.07
2016-09-30T18:34:53.756Z,15.02
2016-09-30T18:35:54.452Z,15.03
2016-09-30T18:36:56.469Z,15.06
2016-09-30T18:37:57.124Z,15.02
2016-09-30T18:38:57.803Z,15.03
2016-09-30T18:39:58.585Z,15.07
2016-09-30T18:40:59.604Z,15.04
2016-09-30T18:42:00.895Z,15.06
2016-09-30T18:43:02.070Z,15.07
2016-09-30T18:44:03.016Z,15.04
2016-09-30T18:45:03.693Z,15.03
2016-09-30T18:46:04.404Z,15.07
2016-09-30T18:47:05.105Z,15.02
2016-09-30T18:48:05.836Z,15.06
2016-09-30T18:49:06.856Z,15.04
2016-09-30T18:50:07.958Z,14.97
2016-09-30T18:51:09.261Z,15.03
2016-09-30T18:52:10.033Z,15.06
2016-09-30T18:53:10.834Z,15.02
2016-09-30T18:54:11.738Z,15.06
2016-09-30T18:55:12.747Z,14.96
2016-09-30T18:56:13.495Z,15
2016-09-30T18:57:14.245Z,14.92
2016-09-30T18:58:15.249Z,14.91
2016-09-30T18:59:16.462Z,14.91
2016-09-30T19:00:17.202Z,14.88
2016-09-30T19:01:17.920Z,14.89
2016-09-30T19:02:18.710Z,14.85
2016-09-30T19:03:20.350Z,14.84
2016-09-30T19:04:21.089Z,14.85
2016-09-30T19:05:21.822Z,14.85
2016-09-30T19:06:22.550Z,14.85
2016-09-30T19:07:23.256Z,14.82
2016-09-30T19:08:23.948Z,14.84
2016-09-30T19:09:24.637Z,14.78
2016-09-30T19:10:25.334Z,14.69
2016-09-30T19:11:26.062Z,14.73
2016-09-30T19:12:26.777Z,14.77
2016-09-30T19:13:27.500Z,14.69
2016-09-30T19:14:28.262Z,14.73
2016-09-30T19:15:28.964Z,14.72
2016-09-30T19:16:29.664Z,14.65
2016-09-30T19:17:30.382Z,14.72
2016-09-30T19:18:31.104Z,14.65
2016-09-30T19:19:31.810Z,14.69
2016-09-30T19:20:32.517Z,14.68
2016-09-30T19:21:33.270Z,14.59
2016-09-30T19:22:33.993Z,14.62
2016-09-30T19:23:34.770Z,14.58
2016-09-30T19:24:35.505Z,14.54
2016-09-30T19:25:36.212Z,14.54
2016-09-30T19:26:36.934Z,14.5
2016-09-30T19:27:37.610Z,14.44
2016-09-30T19:28:38.310Z,14.47
2016-09-30T19:29:39.033Z,14.58
2016-09-30T19:30:39.747Z,14.45
2016-09-30T19:31:40.510Z,14.43
2016-09-30T19:32:41.215Z,14.36
2016-09-30T19:33:41.992Z,14.33
2016-09-30T19:34:42.762Z,14.37
2016-09-30T19:35:43.450Z,14.37
2016-09-30T19:36:44.162Z,14.37
2016-09-30T19:37:44.861Z,14.35
2016-09-30T19:38:45.555Z,14.36
2016-09-30T19:39:46.265Z,14.3
2016-09-30T19:40:46.976Z,14.29
2016-09-30T19:41:47.683Z,14.45
2016-09-30T19:42:48.417Z,14.43
2016-09-30T19:43:49.118Z,14.33
2016-09-30T19:44:49.817Z,14.45
2016-09-30T19:45:50.651Z,14.35
2016-09-30T19:46:51.925Z,14.25
2016-09-30T19:47:52.603Z,14.26
2016-09-30T19:48:53.308Z,14.28
2016-09-30T19:49:54.021Z,14.23
2016-09-30T19:50:54.823Z,14.2
2016-09-30T19:51:55.531Z,14.12
2016-09-30T19:52:56.263Z,14.14
2016-09-30T19:53:56.977Z,14.14
2016-09-30T19:54:57.737Z,14.2
2016-09-30T19:55:58.507Z,14.22
2016-09-30T19:56:59.289Z,14.17
2016-09-30T19:58:00.006Z,14.12
2016-09-30T19:59:00.750Z,14.14
2016-09-30T20:00:01.513Z,14.2
2016-09-30T20:01:02.259Z,14.22
2016-09-30T20:02:03.067Z,14.14
2016-09-30T20:03:03.855Z,14.08
2016-09-30T20:04:04.757Z,14.14
2016-09-30T20:05:05.641Z,14.14
2016-09-30T20:06:06.452Z,14.1
2016-09-30T20:07:07.342Z,14.11
2016-09-30T20:08:08.085Z,14.11
2016-09-30T20:09:08.958Z,14.14
2016-09-30T20:10:09.804Z,14.12
2016-09-30T20:11:10.639Z,14.1
2016-09-30T20:12:11.675Z,14.18
2016-09-30T20:13:12.482Z,14.12
2016-09-30T20:14:13.320Z,14.11
2016-09-30T20:15:14.277Z,14.14
2016-09-30T20:16:15.189Z,14.11
2016-09-30T20:17:15.912Z,14.05
2016-09-30T20:18:16.712Z,14.03
2016-09-30T20:19:17.510Z,14.04
2016-09-30T20:20:18.259Z,14.03
2016-09-30T20:21:19.113Z,14
2016-09-30T20:22:19.854Z,14.03
2016-09-30T20:23:20.542Z,13.95
2016-09-30T20:24:21.249Z,13.99
2016-09-30T20:25:21.946Z,13.99
2016-09-30T20:26:22.652Z,13.95
2016-09-30T20:27:23.348Z,13.9
2016-09-30T20:28:24.047Z,13.89
2016-09-30T20:29:24.782Z,13.89
2016-09-30T20:30:25.484Z,13.89
2016-09-30T20:31:26.176Z,13.85
2016-09-30T20:32:26.923Z,13.89
2016-09-30T20:33:27.671Z,13.92
2016-09-30T20:34:28.371Z,13.92
2016-09-30T20:35:29.074Z,13.9
2016-09-30T20:36:29.790Z,13.85
2016-09-30T20:37:30.480Z,13.87
2016-09-30T20:38:31.187Z,13.9
2016-09-30T20:39:31.919Z,13.96
2016-09-30T20:40:32.631Z,13.87
2016-09-30T20:41:33.363Z,13.9
2016-09-30T20:42:34.093Z,13.86
2016-09-30T20:43:34.807Z,13.93
2016-09-30T20:44:35.524Z,13.93
2016-09-30T20:45:36.303Z,13.87
2016-09-30T20:46:36.984Z,13.92
2016-09-30T20:47:37.736Z,13.9
2016-09-30T20:48:38.465Z,13.89
2016-09-30T20:49:39.171Z,13.97
2016-09-30T20:50:39.854Z,13.97
2016-09-30T20:51:40.577Z,13.99
2016-09-30T20:52:41.268Z,13.96
2016-09-30T20:53:41.968Z,13.96
2016-09-30T20:54:42.693Z,13.97
2016-09-30T20:55:43.390Z,13.99
2016-09-30T20:56:44.100Z,14.05
2016-09-30T20:57:44.805Z,13.96
2016-09-30T20:58:45.551Z,14.04
2016-09-30T20:59:46.225Z,14.03
2016-09-30T21:00:46.918Z,14
2016-09-30T21:01:47.641Z,14.05
2016-09-30T21:02:48.345Z,14.04
2016-09-30T21:03:49.041Z,14.05
2016-09-30T21:04:49.760Z,14
2016-09-30T21:05:50.447Z,14.03
2016-09-30T21:06:51.128Z,14.08
2016-09-30T21:07:51.839Z,14.04
2016-09-30T21:08:52.535Z,14.04
2016-09-30T21:09:53.217Z,14.12
2016-09-30T21:10:54.004Z,14.11
2016-09-30T21:11:54.775Z,14.12
2016-09-30T21:12:55.472Z,14.17
2016-09-30T21:13:56.136Z,14.11
2016-09-30T21:14:56.834Z,14.17
2016-09-30T21:15:57.634Z,14.14
2016-09-30T21:16:58.654Z,14.1
2016-09-30T21:17:59.392Z,14.2
2016-09-30T21:19:00.129Z,14.2
2016-09-30T21:20:00.853Z,14.15
2016-09-30T21:21:01.558Z,14.18
2016-09-30T21:22:02.262Z,14.22
2016-09-30T21:23:02.987Z,14.08
2016-09-30T21:24:03.714Z,14.17
2016-09-30T21:25:04.397Z,14.11
2016-09-30T21:26:05.091Z,14.2
2016-09-30T21:27:05.797Z,14.12
2016-09-30T21:28:06.575Z,14.12
2016-09-30T21:29:07.267Z,14.14
2016-09-30T21:30:08.074Z,14.08
2016-09-30T21:31:08.807Z,14.07
2016-09-30T21:32:09.574Z,14.12
2016-09-30T21:33:10.357Z,14.12
2016-09-30T21:34:11.171Z,14.1
2016-09-30T21:35:11.896Z,14.14
2016-09-30T21:36:12.604Z,14.1
2016-09-30T21:37:13.312Z,14.11
2016-09-30T21:38:14.034Z,14.11
2016-09-30T21:39:14.759Z,14.03
2016-09-30T21:40:15.475Z,14.04
2016-09-30T21:41:16.162Z,13.96
2016-09-30T21:42:16.902Z,13.96
2016-09-30T21:43:17.624Z,14
2016-09-30T21:44:18.378Z,13.93
2016-09-30T21:45:19.887Z,13.97
2016-09-30T21:46:20.577Z,13.96
2016-09-30T21:47:21.276Z,14
2016-09-30T21:48:21.973Z,13.96
2016-09-30T21:49:22.708Z,13.99
2016-09-30T21:50:23.402Z,13.97
2016-09-30T21:51:24.118Z,13.96
2016-09-30T21:52:24.810Z,13.97
2016-09-30T21:53:25.516Z,13.87
2016-09-30T21:54:26.877Z,13.93
2016-09-30T21:55:28.045Z,13.9
2016-09-30T21:56:28.738Z,13.95
2016-09-30T21:57:29.523Z,13.87
2016-09-30T21:58:30.231Z,13.93
2016-09-30T21:59:30.948Z,13.81
2016-09-30T22:00:31.634Z,13.86
2016-09-30T22:01:32.371Z,13.89
2016-09-30T22:02:33.087Z,13.9
2016-09-30T22:03:33.844Z,13.77
2016-09-30T22:04:34.580Z,13.9
2016-09-30T22:05:35.285Z,13.79
2016-09-30T22:06:35.981Z,13.85
2016-09-30T22:07:36.751Z,13.86
2016-09-30T22:08:37.562Z,13.78
2016-09-30T22:09:38.275Z,13.74
2016-09-30T22:10:39.035Z,13.74
2016-09-30T22:11:39.742Z,13.75
2016-09-30T22:12:40.438Z,13.77
2016-09-30T22:13:41.155Z,13.74
2016-09-30T22:14:41.879Z,13.78
2016-09-30T22:15:42.557Z,13.74
2016-09-30T22:16:43.257Z,13.77
2016-09-30T22:17:43.944Z,13.78
2016-09-30T22:18:44.669Z,13.72
2016-09-30T22:19:45.372Z,13.72
2016-09-30T22:20:46.097Z,13.77
2016-09-30T22:21:46.797Z,13.78
2016-09-30T22:22:47.558Z,13.72
2016-09-30T22:23:48.310Z,13.71
2016-09-30T22:24:49.066Z,13.62
2016-09-30T22:25:49.784Z,13.62
2016-09-30T22:26:50.565Z,13.54
2016-09-30T22:27:51.262Z,13.56
2016-09-30T22:28:51.952Z,13.59
2016-09-30T22:29:52.701Z,13.52
2016-09-30T22:30:53.411Z,13.44
2016-09-30T22:31:54.121Z,13.46
2016-09-30T22:32:54.798Z,13.46
2016-09-30T22:33:55.504Z,13.41
2016-09-30T22:34:56.222Z,13.39
2016-09-30T22:35:56.927Z,13.37
2016-09-30T22:36:57.642Z,13.33
2016-09-30T22:37:58.318Z,13.33
2016-09-30T22:38:59.023Z,13.28
2016-09-30T22:39:59.700Z,13.28
2016-09-30T22:41:00.384Z,13.31
2016-09-30T22:42:01.100Z,13.27
2016-09-30T22:43:01.774Z,13.42
2016-09-30T22:44:02.446Z,13.41
2016-09-30T22:45:03.127Z,13.38
2016-09-30T22:46:03.815Z,13.25
2016-09-30T22:47:04.510Z,13.3
2016-09-30T22:48:05.185Z,13.25
2016-09-30T22:49:05.862Z,13.35
2016-09-30T22:50:06.640Z,13.3
2016-09-30T22:51:07.254Z,13.23
2016-09-30T22:52:07.928Z,13.28
2016-09-30T22:53:08.646Z,13.3
2016-09-30T22:54:09.324Z,13.28
2016-09-30T22:55:10.026Z,13.18
2016-09-30T22:56:10.707Z,13.22
2016-09-30T22:57:11.393Z,13.19
2016-09-30T22:58:12.098Z,13.08
2016-09-30T22:59:12.787Z,13.04
2016-09-30T23:00:13.464Z,13.11
2016-09-30T23:01:14.139Z,13.13
2016-09-30T23:02:14.864Z,12.97
2016-09-30T23:03:15.522Z,12.97
2016-09-30T23:04:16.206Z,12.98
2016-09-30T23:05:16.930Z,13.01
2016-09-30T23:06:17.666Z,12.95
2016-09-30T23:07:18.364Z,12.9
2016-09-30T23:08:19.048Z,12.9
2016-09-30T23:09:19.732Z,12.9
2016-09-30T23:10:20.424Z,12.83
2016-09-30T23:11:21.175Z,12.87
2016-09-30T23:12:21.850Z,12.87
2016-09-30T23:13:22.569Z,12.94
2016-09-30T23:14:23.252Z,12.83
2016-09-30T23:15:23.937Z,12.93
2016-09-30T23:16:24.627Z,12.91
2016-09-30T23:17:25.310Z,12.9
2016-09-30T23:18:26.009Z,12.86
2016-09-30T23:19:26.688Z,12.78
2016-09-30T23:20:27.361Z,12.8
2016-09-30T23:21:28.075Z,12.82
2016-09-30T23:22:28.781Z,12.85
2016-09-30T23:23:29.475Z,12.91
2016-09-30T23:24:30.189Z,12.86
2016-09-30T23:25:30.922Z,12.83
2016-09-30T23:26:31.597Z,12.75
2016-09-30T23:27:32.348Z,12.78
2016-09-30T23:28:33.050Z,12.76
2016-09-30T23:29:33.745Z,12.79
2016-09-30T23:30:34.418Z,12.83
2016-09-30T23:31:35.087Z,12.79
2016-09-30T23:32:35.764Z,12.79
2016-09-30T23:33:36.437Z,12.76
2016-09-30T23:34:37.109Z,12.72
2016-09-30T23:35:37.792Z,12.75
2016-09-30T23:36:38.453Z,12.7
2016-09-30T23:37:39.137Z,12.76
2016-09-30T23:38:39.809Z,12.65
2016-09-30T23:39:40.491Z,12.67
2016-09-30T23:40:41.167Z,12.67
2016-09-30T23:41:41.866Z,12.67
2016-09-30T23:42:42.545Z,12.6
2016-09-30T23:43:43.260Z,12.65
2016-09-30T23:44:43.951Z,12.62
2016-09-30T23:45:44.657Z,12.64
2016-09-30T23:46:45.332Z,12.68
2016-09-30T23:47:46.006Z,12.65
2016-09-30T23:48:46.679Z,12.65
2016-09-30T23:49:47.375Z,12.68
2016-09-30T23:50:48.073Z,12.61
2016-09-30T23:51:48.773Z,12.64
2016-09-30T23:52:49.467Z,12.6
2016-09-30T23:53:50.158Z,12.54
2016-09-30T23:54:50.830Z,12.54
2016-09-30T23:55:51.532Z,12.6
2016-09-30T23:56:52.214Z,12.65
2016-09-30T23:57:52.906Z,12.58
2016-09-30T23:58:53.598Z,12.68
2016-09-30T23:59:54.290Z,12.62
